Latest Coastal Weather Observations for Hobart Airport

IDT60701

Issued at 7:52 pm EST Sunday 23 April 2017 (issued every 10 minutes, with the page automatically refreshed every 10 minutes)

About coastal observations | Map of coastal stations | Coastal observations for TAS | Marine services | Other Formats
Station Details ID: 094008 Name: HOBART AIRPORT Lat: -42.83 Lon: 147.50 Height: 4.0 m
Data from the previous 72 hours. | See also: Recent months at Hobart Airport
Date/Time
EST
Temp
°C
Wind Pressure Rain since
9am
mm
Weather Cloud Vis
km
Sea
Height
m
Swell
Dir  Spd
kts
Gust
kts
hPa Trend Height
m
Period
s
Dir
23/07:30pm 12.1 CALM 0 0 1025.7 - 0.0 - Partly cloudy 10 - - - -
23/07:00pm 13.1 W 5 5 1025.5 - 0.0 - Mostly clear 10 - - - -
23/06:30pm 13.5 SW 5 6 1025.5 - 0.0 - Mostly clear 10 - - - -
23/06:00pm 13.9 SW 5 6 1025.5 F 0.0 Fine Mostly cloudy 35 - - - -
23/05:30pm 14.2 SSW 3 5 1025.3 - 0.0 - Mostly clear 10 - - - -
23/05:00pm 14.4 S 5 6 1025.3 - 0.0 - Mostly clear 10 - - - -
23/04:30pm 14.5 S 5 6 1025.4 - 0.0 - Mostly clear 10 - - - -
23/04:00pm 14.7 SSE 6 7 1025.3 - 0.0 - Mostly clear 10 - - - -
23/03:30pm 14.8 S 7 8 1025.2 - 0.0 - Mostly clear 10 - - - -
23/03:00pm 14.9 SSE 7 7 1025.0 S 0.0 Fine Mostly cloudy 35 - - - -
23/02:30pm 14.8 SSE 6 8 1025.2 - 0.0 - Mostly clear 10 - - - -
23/02:00pm 14.8 SSE 5 7 1025.2 - 0.0 - Mostly clear 10 - - - -
23/01:30pm 14.6 SSE 6 7 1025.4 - 0.0 - Mostly clear 10 - - - -
23/01:00pm 14.6 SSE 6 8 1025.5 - 0.0 - Mostly clear 10 - - - -
23/12:30pm 14.7 SSE 6 7 1025.7 - 0.0 - Mostly clear 10 - - - -
23/12:00pm 14.4 SE 5 7 1026.0 R 0.0 Fine Mostly cloudy 35 - - - -
23/11:30am 14.5 SE 6 7 1026.3 - 0.0 - Mostly clear 10 - - - -
23/11:00am 14.4 SSE 7 9 1026.5 - 0.0 - Mostly clear 10 - - - -
23/10:30am 14.3 N 1 7 1026.7 - 0.0 - Mostly clear 10 - - - -
23/10:00am 13.9 N 3 4 1026.6 - 0.0 - Mostly clear 10 - - - -
23/09:30am 14.2 E 4 6 1026.6 - 0.0 - Mostly clear 10 - - - -
23/09:00am 14.1 SSE 8 9 1026.6 R 0.6 Fine Mostly cloudy 35 - - - -
23/08:30am 14.1 SSE 8 9 1026.6 - 0.6 - Mostly clear 10 - - - -
23/08:00am 13.8 S 7 10 1026.5 - 0.6 - Mostly clear 10 - - - -
23/07:30am 13.6 S 6 7 1026.1 - 0.6 - Mostly clear 10 - - - -
23/07:00am 13.2 S 5 6 1025.8 - 0.6 - Mostly clear 10 - - - -
23/06:30am 13.1 S 4 5 1025.6 - 0.6 - Mostly clear 10 - - - -
23/06:00am 13.1 SSW 5 6 1025.6 R 0.6 Recent precip. Cloudy 20 - - - -
23/05:30am 12.9 S 5 7 1025.3 - 0.6 - Mostly clear 10 - - - -
23/05:00am 12.9 S 7 8 1025.0 - 0.6 - Partly cloudy 5 - - - -
23/04:30am 13.0 S 7 9 1024.8 - 0.4 Drizzle Partly cloudy 5 - - - -
23/04:00am 13.1 S 7 9 1024.7 - 0.0 - Partly cloudy 5 - - - -
23/03:30am 13.3 S 9 13 1024.6 - 0.0 Drizzle Partly cloudy 7 - - - -
23/03:00am 13.5 S 9 12 1024.6 R 0.0 Distant precip. Mostly cloudy 20 - - - -
23/02:30am 13.6 S 8 9 1024.6 - 0.0 - Mostly clear 10 - - - -
23/02:00am 13.6 S 9 12 1024.7 - 0.0 - Mostly clear 10 - - - -
23/01:30am 13.6 S 9 13 1024.6 - 0.0 Drizzle Partly cloudy 10 - - - -
23/01:00am 13.7 S 9 13 1024.5 - 0.0 - Partly cloudy 10 - - - -
23/12:30am 14.0 S 9 12 1024.4 - 0.0 - Partly cloudy 10 - - - -
23/12:00am 14.5 SSE 9 14 1024.4 R 0.0 Drizzle Cloudy 7 - - - -
 
Date/Time
EST
Temp
°C
Wind Pressure Rain since
9am
mm
Weather Cloud Vis
km
Sea
Height
m
Swell
Dir  Spd
kts
Gust
kts
hPa Trend Height
m
Period
s
Dir
22/11:30pm 14.6 S 7 9 1024.5 - 0.0 Drizzle Mostly clear 7 - - - -
22/11:00pm 14.7 S 8 10 1024.5 - 0.0 - Partly cloudy 7 - - - -
22/10:30pm 15.0 S 9 12 1024.4 - 0.0 Drizzle Partly cloudy 6 - - - -
22/10:00pm 15.3 SSE 7 10 1024.3 - 0.0 - Partly cloudy 9 - - - -
22/09:30pm 15.4 SSE 8 10 1024.2 - 0.0 Drizzle Mostly clear 10 - - - -
22/09:00pm 15.7 ESE 3 4 1024.1 R 0.0 Drizzle Cloudy 12 - - - -
22/08:30pm 15.7 SSE 7 9 1023.9 - 0.0 - Partly cloudy 10 - - - -
22/08:00pm 15.7 SE 7 8 1023.8 - 0.0 - Partly cloudy 10 - - - -
22/07:30pm 15.7 SE 6 8 1023.6 - 0.0 - Mostly cloudy 10 - - - -
22/07:00pm 15.7 SSE 7 9 1023.4 - 0.0 - Mostly cloudy 10 - - - -
22/06:30pm 15.6 SSE 8 10 1023.3 - 0.0 - Partly cloudy 10 - - - -
22/06:10pm 15.7 SSE 9 12 1023.0 - 0.0 - Partly cloudy 10 - - - -
22/06:00pm 15.7 SSE 8 10 1022.9 R 0.0 Haze Cloudy 15 - - - -
22/05:30pm 15.7 SSE 5 7 1022.9 - 0.0 - Mostly clear 10 - - - -
22/05:00pm 15.8 SSE 4 4 1022.5 - 0.0 - Mostly clear 10 - - - -
22/04:30pm 15.9 SSE 5 6 1022.4 - 0.0 - Mostly clear 10 - - - -
22/04:00pm 15.9 SE 7 9 1022.2 - 0.0 - Mostly clear 10 - - - -
22/03:55pm 15.9 SE 7 9 1022.2 - 0.0 Rain Mostly clear 10 - - - -
22/03:30pm 15.9 SSE 8 11 1022.1 - 0.0 - Mostly clear 10 - - - -
22/03:00pm 16.0 SSE 9 11 1022.0 R 0.0 Haze Cloudy 18 - - - -
22/02:30pm 16.2 SE 9 10 1021.7 - 0.0 - Mostly clear 10 - - - -
22/02:00pm 16.3 SE 9 13 1021.7 - 0.0 - Mostly clear 10 - - - -
22/01:30pm 16.6 SSE 10 13 1021.6 - 0.0 - Mostly clear 10 - - - -
22/01:00pm 16.8 SE 10 13 1021.8 - 0.0 - Mostly clear 10 - - - -
22/12:30pm 16.9 SSE 10 13 1022.0 - 0.0 - Mostly clear 10 - - - -
22/12:00pm 17.2 SSE 11 15 1022.2 R 0.0 Haze Mostly cloudy 20 - - - -
22/11:30am 17.4 SSE 10 12 1022.3 - 0.0 - Mostly clear 10 - - - -
22/11:00am 18.6 SSW 9 13 1022.3 - 0.0 - Mostly clear 10 - - - -
22/10:30am 19.2 W 9 11 1022.1 - 0.0 - Mostly clear 10 - - - -
22/10:00am 18.4 NW 7 9 1021.9 - 0.0 - Mostly clear 10 - - - -
22/09:30am 17.9 NNW 6 7 1021.7 - 0.0 - Mostly clear 10 - - - -
22/09:00am 17.2 NNW 7 9 1021.7 F 0.0 Haze Mostly cloudy 20 - - - -
22/08:30am 16.7 NNW 6 7 1021.7 - 0.0 - Mostly clear 10 - - - -
22/08:00am 16.4 N 6 9 1021.6 - 0.0 - Mostly clear 10 - - - -
22/07:30am 16.0 WNW 6 8 1021.5 - 0.0 - Mostly clear 10 - - - -
22/07:00am 15.9 NNW 5 7 1021.1 - 0.0 - Mostly clear 10 - - - -
22/06:30am 15.8 NW 5 6 1021.2 - 0.0 - Mostly clear 10 - - - -
22/06:00am 14.8 NW 7 9 1021.1 R 0.0 Haze Mostly cloudy 25 - - - -
22/05:30am 13.5 WNW 5 7 1021.1 - 0.0 - Partly cloudy 10 - - - -
22/05:00am 14.1 NNW 6 8 1020.9 - 0.0 - - 10 - - - -
22/04:30am 13.5 NW 7 8 1020.7 - 0.0 - - 10 - - - -
22/04:00am 14.3 NNE 4 5 1020.6 - 0.0 - - 10 - - - -
22/03:30am 14.8 WNW 6 7 1020.6 - 0.0 - - 10 - - - -
22/03:00am 14.6 WNW 5 6 1020.6 R 0.0 Haze Mostly cloudy 20 - - - -
22/02:30am 15.9 NNE 4 6 1020.8 - 0.0 - - 10 - - - -
22/02:00am 14.1 NNW 6 8 1020.9 - 0.0 - - 10 - - - -
22/01:30am 15.1 NNW 3 4 1020.9 - 0.0 - - 10 - - - -
22/01:00am 14.7 CALM 0 0 1021.1 - 0.0 - - 10 - - - -
22/12:30am 13.9 CALM 0 0 1021.3 - 0.0 - - 10 - - - -
22/12:00am 14.7 N 4 5 1021.2 F 0.0 Haze Partly cloudy 15 - - - -
 
Date/Time
EST
Temp
°C
Wind Pressure Rain since
9am
mm
Weather Cloud Vis
km
Sea
Height
m
Swell
Dir  Spd
kts
Gust
kts
hPa Trend Height
m
Period
s
Dir
21/11:30pm 13.7 NW 4 4 1021.3 - 0.0 - - 10 - - - -
21/11:00pm 14.1 N 3 4 1021.5 - 0.0 - - 10 - - - -
21/10:30pm 14.7 CALM 0 3 1021.8 - 0.0 - - 10 - - - -
21/10:00pm 14.6 CALM 0 0 1021.9 - 0.0 - - 10 - - - -
21/09:30pm 16.0 NNW 1 4 1021.9 - 0.0 - - 10 - - - -
21/09:00pm 17.1 NNW 3 4 1021.8 F 0.0 Haze Mostly cloudy 20 - - - -
21/08:30pm 17.2 N 3 5 1021.8 - 0.0 - - 10 - - - -
21/08:00pm 18.2 NNW 3 5 1021.7 - 0.0 - - 10 - - - -
21/07:30pm 18.0 ENE 2 5 1021.7 - 0.0 - Mostly clear 10 - - - -
21/07:00pm 18.5 NNE 5 7 1021.6 - 0.0 - Mostly clear 10 - - - -
21/06:30pm 17.6 NNW 3 6 1021.4 - 0.0 - Mostly clear 10 - - - -
21/06:00pm 18.8 ENE 5 6 1021.2 F 0.0 Haze Partly cloudy 25 - - - -
21/05:30pm 19.2 ENE 5 8 1020.9 - 0.0 - Mostly clear 10 - - - -
21/05:00pm 20.5 ENE 6 8 1020.8 - 0.0 - Mostly clear 10 - - - -
21/04:30pm 21.8 ENE 8 12 1020.8 - 0.0 - Mostly clear 10 - - - -
21/04:00pm 22.7 ENE 8 12 1020.8 - 0.0 - Mostly clear 10 - - - -
21/03:30pm 23.3 ENE 7 10 1020.8 - 0.0 - Mostly clear 10 - - - -
21/03:00pm 23.8 NE 7 10 1021.0 F 0.0 Haze Mostly clear 25 - - - -
21/02:30pm 23.4 SSE 6 7 1021.2 - 0.0 - Mostly clear 10 - - - -
21/02:00pm 22.4 SE 7 8 1021.5 - 0.0 - - 10 - - - -
21/01:30pm 22.0 SE 8 10 1021.8 - 0.0 - - 10 - - - -
21/01:00pm 21.8 SE 9 10 1022.2 - 0.0 - - 10 - - - -
21/12:30pm 21.8 SE 8 10 1022.7 - 0.0 - - 10 - - - -
21/12:00pm 23.5 N 4 6 1023.1 F 0.0 Haze Partly cloudy 20 - - - -
21/11:30am 21.8 NW 5 6 1023.7 - 0.0 - - 10 - - - -
21/11:00am 20.9 NW 7 8 1024.2 - 0.0 - - 10 - - - -
21/10:30am 19.5 NW 6 7 1024.3 - 0.0 - - 10 - - - -
21/10:00am 18.2 WNW 4 6 1024.5 - 0.0 - - 10 - - - -
21/09:30am 16.4 WNW 7 8 1024.6 - 0.0 - - 10 - - - -
21/09:00am 15.0 WNW 7 8 1024.5 F 0.0 Haze Mostly clear 20 - - - -
21/08:30am 13.9 WNW 7 8 1024.6 - 0.0 - - 10 - - - -
21/08:00am 13.0 NW 6 8 1024.7 - 0.0 - - 10 - - - -
21/07:30am 11.9 WNW 8 10 1024.7 - 0.0 - - 10 - - - -
21/07:00am 11.5 NW 6 6 1024.5 - 0.0 - - 10 - - - -
21/06:30am 11.3 WNW 7 9 1024.2 - 0.0 - - 10 - - - -
21/06:00am 11.9 WNW 4 5 1024.0 R 0.0 Haze Mostly cloudy 25 - - - -
21/05:30am 11.9 W 4 5 1023.9 - 0.0 - - 10 - - - -
21/05:00am 12.0 W 1 4 1023.9 - 0.0 - - 10 - - - -
21/04:30am 12.1 W 3 4 1023.6 - 0.0 - - 10 - - - -
21/04:00am 13.5 NW 5 6 1023.4 - 0.0 - - 10 - - - -
21/03:30am 13.9 NW 10 10 1023.4 - 0.0 - - 10 - - - -
21/03:00am 13.7 NW 9 10 1023.5 R 0.0 Haze Mostly cloudy 18 - - - -
21/02:30am 13.9 WNW 7 9 1023.6 - 0.0 - - 10 - - - -
21/02:00am 14.1 WNW 7 8 1023.7 - 0.0 - - 10 - - - -
21/01:30am 14.5 NW 8 9 1023.5 - 0.0 - - 10 - - - -
21/01:00am 14.5 NW 8 9 1023.6 - 0.0 - - 10 - - - -
21/12:30am 15.0 NW 8 9 1023.7 - 0.0 - - 10 - - - -
21/12:00am 15.1 NW 8 10 1023.9 S 0.0 Haze Mostly cloudy 25 - - - -
 
Date/Time
EST
Temp
°C
Wind Pressure Rain since
9am
mm
Weather Cloud Vis
km
Sea
Height
m
Swell
Dir  Spd
kts
Gust
kts
hPa Trend Height
m
Period
s
Dir
20/11:30pm 15.8 NW 9 10 1023.9 - 0.0 - - 10 - - - -
20/11:00pm 15.0 NW 11 13 1024.0 - 0.0 - - 10 - - - -
20/10:30pm 15.2 NW 7 8 1024.2 - 0.0 - - 10 - - - -
20/10:00pm 15.4 WNW 8 9 1024.3 - 0.0 - - 10 - - - -
20/09:30pm 15.8 NNW 4 9 1024.4 - 0.0 - - 10 - - - -
20/09:00pm 15.8 NW 2 4 1024.3 R 0.0 Haze Mostly clear 25 - - - -
20/08:30pm 15.2 WNW 1 4 1024.2 - 0.0 - - 10 - - - -
20/08:00pm 16.1 W 2 4 1024.1 - 0.0 - - 10 - - - -

Other Formats:

Comma delimited format used in spreadsheet applications
http://www.bom.gov.au/fwo/IDT60701/IDT60701.94975.axf

JavaScript Object Notation format (JSON) in row-major order
http://www.bom.gov.au/fwo/IDT60701/IDT60701.94975.json